sensor_id;sensor_type;location;lat;lon;timestamp;temperature;humidity
18444;DHT22;9350;53.176;8.194;2023-03-24T00:01:57;11.80;99.90
18444;DHT22;9350;53.176;8.194;2023-03-24T00:04:25;11.80;99.90
18444;DHT22;9350;53.176;8.194;2023-03-24T00:06:54;11.80;99.90
18444;DHT22;9350;53.176;8.194;2023-03-24T00:09:20;11.80;99.90
18444;DHT22;9350;53.176;8.194;2023-03-24T00:11:47;11.80;99.90
18444;DHT22;9350;53.176;8.194;2023-03-24T00:14:14;11.80;99.90
18444;DHT22;9350;53.176;8.194;2023-03-24T00:16:41;11.80;99.90
18444;DHT22;9350;53.176;8.194;2023-03-24T00:19:09;11.80;99.90
18444;DHT22;9350;53.176;8.194;2023-03-24T00:21:39;11.80;99.90
18444;DHT22;9350;53.176;8.194;2023-03-24T00:24:07;11.80;99.90
18444;DHT22;9350;53.176;8.194;2023-03-24T00:26:37;11.80;99.90
18444;DHT22;9350;53.176;8.194;2023-03-24T00:29:06;11.80;99.90
18444;DHT22;9350;53.176;8.194;2023-03-24T00:31:33;11.80;99.90
18444;DHT22;9350;53.176;8.194;2023-03-24T00:34:04;11.80;99.90
18444;DHT22;9350;53.176;8.194;2023-03-24T00:36:32;11.80;99.90
18444;DHT22;9350;53.176;8.194;2023-03-24T00:39:00;11.80;99.90
18444;DHT22;9350;53.176;8.194;2023-03-24T00:41:27;11.80;99.90
18444;DHT22;9350;53.176;8.194;2023-03-24T00:43:56;11.70;99.90
18444;DHT22;9350;53.176;8.194;2023-03-24T00:46:23;11.80;99.90
18444;DHT22;9350;53.176;8.194;2023-03-24T00:48:54;11.70;99.90
18444;DHT22;9350;53.176;8.194;2023-03-24T00:51:27;11.70;99.90
18444;DHT22;9350;53.176;8.194;2023-03-24T00:53:54;11.70;99.90
18444;DHT22;9350;53.176;8.194;2023-03-24T00:56:24;11.70;99.90
18444;DHT22;9350;53.176;8.194;2023-03-24T00:58:52;11.70;99.90
18444;DHT22;9350;53.176;8.194;2023-03-24T01:01:22;11.70;99.90
18444;DHT22;9350;53.176;8.194;2023-03-24T01:03:49;11.60;99.90
18444;DHT22;9350;53.176;8.194;2023-03-24T01:06:16;11.60;99.90
18444;DHT22;9350;53.176;8.194;2023-03-24T01:08:43;11.70;99.90
18444;DHT22;9350;53.176;8.194;2023-03-24T01:11:11;11.80;99.90
18444;DHT22;9350;53.176;8.194;2023-03-24T01:13:40;11.70;99.90
18444;DHT22;9350;53.176;8.194;2023-03-24T01:16:07;11.70;99.90
18444;DHT22;9350;53.176;8.194;2023-03-24T01:18:34;11.60;99.90
18444;DHT22;9350;53.176;8.194;2023-03-24T01:21:06;11.60;99.90
18444;DHT22;9350;53.176;8.194;2023-03-24T01:23:33;11.60;99.90
18444;DHT22;9350;53.176;8.194;2023-03-24T01:26:04;11.70;99.90
18444;DHT22;9350;53.176;8.194;2023-03-24T01:28:31;11.70;99.90
18444;DHT22;9350;53.176;8.194;2023-03-24T01:30:59;11.70;99.90
18444;DHT22;9350;53.176;8.194;2023-03-24T01:33:26;11.70;99.90
18444;DHT22;9350;53.176;8.194;2023-03-24T01:35:52;11.70;99.90
18444;DHT22;9350;53.176;8.194;2023-03-24T01:38:19;11.60;99.90
18444;DHT22;9350;53.176;8.194;2023-03-24T01:40:46;11.60;99.90
18444;DHT22;9350;53.176;8.194;2023-03-24T01:43:17;11.60;99.90
18444;DHT22;9350;53.176;8.194;2023-03-24T01:45:56;11.60;99.90
18444;DHT22;9350;53.176;8.194;2023-03-24T01:48:29;11.60;99.90
18444;DHT22;9350;53.176;8.194;2023-03-24T01:50:59;11.70;99.90
18444;DHT22;9350;53.176;8.194;2023-03-24T01:53:27;11.70;99.90
18444;DHT22;9350;53.176;8.194;2023-03-24T01:55:55;11.70;99.90
18444;DHT22;9350;53.176;8.194;2023-03-24T01:58:22;11.70;99.90
18444;DHT22;9350;53.176;8.194;2023-03-24T02:00:50;11.60;99.90
18444;DHT22;9350;53.176;8.194;2023-03-24T02:03:26;11.60;99.90
18444;DHT22;9350;53.176;8.194;2023-03-24T02:05:58;11.60;99.90
18444;DHT22;9350;53.176;8.194;2023-03-24T02:08:31;11.70;99.90
18444;DHT22;9350;53.176;8.194;2023-03-24T02:10:59;11.50;99.90
18444;DHT22;9350;53.176;8.194;2023-03-24T02:13:26;11.60;99.90
18444;DHT22;9350;53.176;8.194;2023-03-24T02:16:09;11.60;99.90
18444;DHT22;9350;53.176;8.194;2023-03-24T02:18:45;11.60;99.90
18444;DHT22;9350;53.176;8.194;2023-03-24T02:21:44;11.60;99.90
18444;DHT22;9350;53.176;8.194;2023-03-24T02:27:47;11.60;99.90
18444;DHT22;9350;53.176;8.194;2023-03-24T02:30:31;11.60;99.90
18444;DHT22;9350;53.176;8.194;2023-03-24T02:36:36;11.60;99.90
18444;DHT22;9350;53.176;8.194;2023-03-24T02:39:29;11.60;99.90
18444;DHT22;9350;53.176;8.194;2023-03-24T02:42:05;11.60;99.90
18444;DHT22;9350;53.176;8.194;2023-03-24T02:44:41;11.60;99.90
18444;DHT22;9350;53.176;8.194;2023-03-24T02:47:18;11.60;99.90
18444;DHT22;9350;53.176;8.194;2023-03-24T02:49:49;11.70;99.90
18444;DHT22;9350;53.176;8.194;2023-03-24T02:52:23;11.70;99.90
18444;DHT22;9350;53.176;8.194;2023-03-24T02:54:56;11.70;99.90
18444;DHT22;9350;53.176;8.194;2023-03-24T02:57:30;11.70;99.90
18444;DHT22;9350;53.176;8.194;2023-03-24T03:00:02;11.70;99.90
18444;DHT22;9350;53.176;8.194;2023-03-24T03:02:36;11.70;99.90
18444;DHT22;9350;53.176;8.194;2023-03-24T03:05:10;11.60;99.90
18444;DHT22;9350;53.176;8.194;2023-03-24T03:07:40;11.70;99.90
18444;DHT22;9350;53.176;8.194;2023-03-24T03:10:14;11.70;99.90
18444;DHT22;9350;53.176;8.194;2023-03-24T03:12:44;11.70;99.90
18444;DHT22;9350;53.176;8.194;2023-03-24T03:15:15;11.70;99.90
18444;DHT22;9350;53.176;8.194;2023-03-24T03:17:48;11.70;99.90
18444;DHT22;9350;53.176;8.194;2023-03-24T03:20:20;11.70;99.90
18444;DHT22;9350;53.176;8.194;2023-03-24T03:22:49;11.80;99.90
18444;DHT22;9350;53.176;8.194;2023-03-24T03:25:21;11.70;99.90
18444;DHT22;9350;53.176;8.194;2023-03-24T03:27:50;11.70;99.90
18444;DHT22;9350;53.176;8.194;2023-03-24T03:30:23;11.80;99.90
18444;DHT22;9350;53.176;8.194;2023-03-24T03:32:55;11.80;99.90
18444;DHT22;9350;53.176;8.194;2023-03-24T03:35:25;11.80;99.90
18444;DHT22;9350;53.176;8.194;2023-03-24T03:38:00;11.90;99.90
18444;DHT22;9350;53.176;8.194;2023-03-24T03:40:33;11.80;99.90
18444;DHT22;9350;53.176;8.194;2023-03-24T03:43:01;11.80;99.90
18444;DHT22;9350;53.176;8.194;2023-03-24T03:45:28;11.80;99.90
18444;DHT22;9350;53.176;8.194;2023-03-24T03:47:55;11.80;99.90
18444;DHT22;9350;53.176;8.194;2023-03-24T03:50:22;11.80;99.90
18444;DHT22;9350;53.176;8.194;2023-03-24T03:52:49;11.80;99.90
18444;DHT22;9350;53.176;8.194;2023-03-24T03:55:16;11.90;99.90
18444;DHT22;9350;53.176;8.194;2023-03-24T03:57:45;11.80;99.90
18444;DHT22;9350;53.176;8.194;2023-03-24T04:00:14;11.90;99.90
18444;DHT22;9350;53.176;8.194;2023-03-24T04:02:51;11.90;99.90
18444;DHT22;9350;53.176;8.194;2023-03-24T04:05:26;11.90;99.90
18444;DHT22;9350;53.176;8.194;2023-03-24T04:08:18;11.90;99.90
18444;DHT22;9350;53.176;8.194;2023-03-24T04:11:24;11.90;99.90
18444;DHT22;9350;53.176;8.194;2023-03-24T04:14:06;11.90;99.90
18444;DHT22;9350;53.176;8.194;2023-03-24T04:16:43;11.90;99.90
18444;DHT22;9350;53.176;8.194;2023-03-24T04:19:23;11.90;99.90
18444;DHT22;9350;53.176;8.194;2023-03-24T04:22:05;11.90;99.90
18444;DHT22;9350;53.176;8.194;2023-03-24T04:24:43;11.90;99.90
18444;DHT22;9350;53.176;8.194;2023-03-24T04:27:20;11.90;99.90
18444;DHT22;9350;53.176;8.194;2023-03-24T04:29:58;11.90;99.90
18444;DHT22;9350;53.176;8.194;2023-03-24T04:32:30;11.90;99.90
18444;DHT22;9350;53.176;8.194;2023-03-24T04:35:03;11.90;99.90
18444;DHT22;9350;53.176;8.194;2023-03-24T04:37:33;11.90;99.90
18444;DHT22;9350;53.176;8.194;2023-03-24T04:40:05;11.90;99.90
18444;DHT22;9350;53.176;8.194;2023-03-24T04:42:36;11.90;99.90
18444;DHT22;9350;53.176;8.194;2023-03-24T04:45:06;12.00;99.90
18444;DHT22;9350;53.176;8.194;2023-03-24T04:47:39;11.90;99.90
18444;DHT22;9350;53.176;8.194;2023-03-24T04:50:09;11.90;99.90
18444;DHT22;9350;53.176;8.194;2023-03-24T04:52:36;11.90;99.90
18444;DHT22;9350;53.176;8.194;2023-03-24T04:55:17;12.00;99.90
18444;DHT22;9350;53.176;8.194;2023-03-24T04:57:47;12.00;99.90
18444;DHT22;9350;53.176;8.194;2023-03-24T05:00:15;12.00;99.90
18444;DHT22;9350;53.176;8.194;2023-03-24T05:02:42;12.00;99.90
18444;DHT22;9350;53.176;8.194;2023-03-24T05:05:10;12.00;99.90
18444;DHT22;9350;53.176;8.194;2023-03-24T05:07:37;12.00;99.90
18444;DHT22;9350;53.176;8.194;2023-03-24T05:10:05;12.00;99.90
18444;DHT22;9350;53.176;8.194;2023-03-24T05:12:32;12.00;99.90
18444;DHT22;9350;53.176;8.194;2023-03-24T05:14:58;12.00;99.90
18444;DHT22;9350;53.176;8.194;2023-03-24T05:17:27;12.00;99.90
18444;DHT22;9350;53.176;8.194;2023-03-24T05:19:53;12.00;99.90
18444;DHT22;9350;53.176;8.194;2023-03-24T05:22:20;12.10;99.90
18444;DHT22;9350;53.176;8.194;2023-03-24T05:24:47;12.00;99.90
18444;DHT22;9350;53.176;8.194;2023-03-24T05:27:13;12.10;99.90
18444;DHT22;9350;53.176;8.194;2023-03-24T05:29:40;12.10;99.90
18444;DHT22;9350;53.176;8.194;2023-03-24T05:32:07;12.00;99.90
18444;DHT22;9350;53.176;8.194;2023-03-24T05:34:35;11.90;99.90
18444;DHT22;9350;53.176;8.194;2023-03-24T05:37:02;11.90;99.90
18444;DHT22;9350;53.176;8.194;2023-03-24T05:39:28;11.90;99.90
18444;DHT22;9350;53.176;8.194;2023-03-24T05:41:55;11.90;99.90
18444;DHT22;9350;53.176;8.194;2023-03-24T05:44:22;11.90;99.90
18444;DHT22;9350;53.176;8.194;2023-03-24T05:46:49;11.90;99.90
18444;DHT22;9350;53.176;8.194;2023-03-24T05:49:15;11.80;99.90
18444;DHT22;9350;53.176;8.194;2023-03-24T05:51:43;11.80;99.90
18444;DHT22;9350;53.176;8.194;2023-03-24T05:54:10;11.70;99.90
18444;DHT22;9350;53.176;8.194;2023-03-24T05:56:37;11.70;99.90
18444;DHT22;9350;53.176;8.194;2023-03-24T05:59:04;11.70;99.90
18444;DHT22;9350;53.176;8.194;2023-03-24T06:01:31;11.70;99.90
18444;DHT22;9350;53.176;8.194;2023-03-24T06:03:57;11.70;99.90
18444;DHT22;9350;53.176;8.194;2023-03-24T06:06:24;11.60;99.90
18444;DHT22;9350;53.176;8.194;2023-03-24T06:08:54;11.60;99.90
18444;DHT22;9350;53.176;8.194;2023-03-24T06:11:23;11.50;99.90
18444;DHT22;9350;53.176;8.194;2023-03-24T06:13:49;11.60;99.90
18444;DHT22;9350;53.176;8.194;2023-03-24T06:16:16;11.50;99.90
18444;DHT22;9350;53.176;8.194;2023-03-24T06:18:43;11.50;99.90
18444;DHT22;9350;53.176;8.194;2023-03-24T06:21:17;11.40;99.90
18444;DHT22;9350;53.176;8.194;2023-03-24T06:23:44;11.30;99.90
18444;DHT22;9350;53.176;8.194;2023-03-24T06:26:14;11.40;99.90
18444;DHT22;9350;53.176;8.194;2023-03-24T06:28:41;11.40;99.90
18444;DHT22;9350;53.176;8.194;2023-03-24T06:31:08;11.40;99.90
18444;DHT22;9350;53.176;8.194;2023-03-24T06:33:39;11.40;99.90
18444;DHT22;9350;53.176;8.194;2023-03-24T06:36:07;11.40;99.90
18444;DHT22;9350;53.176;8.194;2023-03-24T06:38:34;11.40;99.90
18444;DHT22;9350;53.176;8.194;2023-03-24T06:41:01;11.40;99.90
18444;DHT22;9350;53.176;8.194;2023-03-24T06:43:30;11.40;99.90
18444;DHT22;9350;53.176;8.194;2023-03-24T06:45:57;11.40;99.90
18444;DHT22;9350;53.176;8.194;2023-03-24T06:48:27;11.40;99.90
18444;DHT22;9350;53.176;8.194;2023-03-24T06:50:55;11.40;99.90
18444;DHT22;9350;53.176;8.194;2023-03-24T06:53:22;11.40;99.90
18444;DHT22;9350;53.176;8.194;2023-03-24T06:55:48;11.40;99.90
18444;DHT22;9350;53.176;8.194;2023-03-24T06:58:16;11.40;99.90
18444;DHT22;9350;53.176;8.194;2023-03-24T07:00:44;11.40;99.90
18444;DHT22;9350;53.176;8.194;2023-03-24T07:03:14;11.40;99.90
18444;DHT22;9350;53.176;8.194;2023-03-24T07:05:42;11.50;99.90
18444;DHT22;9350;53.176;8.194;2023-03-24T07:08:10;11.40;99.90
18444;DHT22;9350;53.176;8.194;2023-03-24T07:10:38;11.40;99.90
18444;DHT22;9350;53.176;8.194;2023-03-24T07:13:05;11.40;99.90
18444;DHT22;9350;53.176;8.194;2023-03-24T07:15:32;11.40;99.90
18444;DHT22;9350;53.176;8.194;2023-03-24T07:18:00;11.40;99.90
18444;DHT22;9350;53.176;8.194;2023-03-24T07:20:27;11.50;99.90
18444;DHT22;9350;53.176;8.194;2023-03-24T07:22:55;11.50;99.90
18444;DHT22;9350;53.176;8.194;2023-03-24T07:25:22;11.50;99.90
18444;DHT22;9350;53.176;8.194;2023-03-24T07:27:52;11.50;99.90
18444;DHT22;9350;53.176;8.194;2023-03-24T07:30:19;11.50;99.90
18444;DHT22;9350;53.176;8.194;2023-03-24T07:32:46;11.50;99.90
18444;DHT22;9350;53.176;8.194;2023-03-24T07:35:16;11.50;99.90
18444;DHT22;9350;53.176;8.194;2023-03-24T07:37:43;11.50;99.90
18444;DHT22;9350;53.176;8.194;2023-03-24T07:40:11;11.40;99.90
18444;DHT22;9350;53.176;8.194;2023-03-24T07:42:41;11.40;99.90
18444;DHT22;9350;53.176;8.194;2023-03-24T07:45:09;11.50;99.90
18444;DHT22;9350;53.176;8.194;2023-03-24T07:47:36;11.50;99.90
18444;DHT22;9350;53.176;8.194;2023-03-24T07:50:05;11.50;99.90
18444;DHT22;9350;53.176;8.194;2023-03-24T07:52:36;11.50;99.90
18444;DHT22;9350;53.176;8.194;2023-03-24T07:55:03;11.50;99.90
18444;DHT22;9350;53.176;8.194;2023-03-24T07:57:30;11.50;99.90
18444;DHT22;9350;53.176;8.194;2023-03-24T07:59:56;11.60;99.90
18444;DHT22;9350;53.176;8.194;2023-03-24T08:02:23;11.70;99.90
18444;DHT22;9350;53.176;8.194;2023-03-24T08:04:50;11.80;99.90
18444;DHT22;9350;53.176;8.194;2023-03-24T08:07:19;11.80;99.90
18444;DHT22;9350;53.176;8.194;2023-03-24T08:09:47;11.90;99.90
18444;DHT22;9350;53.176;8.194;2023-03-24T08:12:14;12.00;99.90
18444;DHT22;9350;53.176;8.194;2023-03-24T08:14:41;12.10;99.90
18444;DHT22;9350;53.176;8.194;2023-03-24T08:17:07;12.00;99.90
18444;DHT22;9350;53.176;8.194;2023-03-24T08:19:34;12.00;99.90
18444;DHT22;9350;53.176;8.194;2023-03-24T08:22:01;12.10;99.90
18444;DHT22;9350;53.176;8.194;2023-03-24T08:24:28;12.10;99.90
18444;DHT22;9350;53.176;8.194;2023-03-24T08:26:56;12.20;99.90
18444;DHT22;9350;53.176;8.194;2023-03-24T08:29:27;12.10;99.90
18444;DHT22;9350;53.176;8.194;2023-03-24T08:31:53;12.10;99.90
18444;DHT22;9350;53.176;8.194;2023-03-24T08:34:20;12.20;99.90
18444;DHT22;9350;53.176;8.194;2023-03-24T08:36:49;12.20;99.90
18444;DHT22;9350;53.176;8.194;2023-03-24T08:39:16;12.20;99.90
18444;DHT22;9350;53.176;8.194;2023-03-24T08:41:42;12.10;99.90
18444;DHT22;9350;53.176;8.194;2023-03-24T08:44:12;12.00;99.90
18444;DHT22;9350;53.176;8.194;2023-03-24T08:46:38;12.00;99.90
18444;DHT22;9350;53.176;8.194;2023-03-24T08:49:05;12.00;99.90
18444;DHT22;9350;53.176;8.194;2023-03-24T08:51:32;12.20;99.90
18444;DHT22;9350;53.176;8.194;2023-03-24T08:53:59;12.20;99.90
18444;DHT22;9350;53.176;8.194;2023-03-24T08:56:26;12.30;99.90
18444;DHT22;9350;53.176;8.194;2023-03-24T08:58:53;12.30;99.90
18444;DHT22;9350;53.176;8.194;2023-03-24T09:01:21;12.40;99.90
18444;DHT22;9350;53.176;8.194;2023-03-24T09:03:48;12.40;99.90
18444;DHT22;9350;53.176;8.194;2023-03-24T09:06:15;12.40;99.90
18444;DHT22;9350;53.176;8.194;2023-03-24T09:08:42;12.40;99.90
18444;DHT22;9350;53.176;8.194;2023-03-24T09:11:13;12.40;99.90
18444;DHT22;9350;53.176;8.194;2023-03-24T09:13:40;12.30;99.90
18444;DHT22;9350;53.176;8.194;2023-03-24T09:16:07;12.30;99.90
18444;DHT22;9350;53.176;8.194;2023-03-24T09:18:35;12.40;99.90
18444;DHT22;9350;53.176;8.194;2023-03-24T09:21:03;12.40;99.90
18444;DHT22;9350;53.176;8.194;2023-03-24T09:23:30;12.50;99.90
18444;DHT22;9350;53.176;8.194;2023-03-24T09:25:57;12.50;99.90
18444;DHT22;9350;53.176;8.194;2023-03-24T09:28:24;12.60;99.90
18444;DHT22;9350;53.176;8.194;2023-03-24T09:30:55;12.60;99.90
18444;DHT22;9350;53.176;8.194;2023-03-24T09:33:22;12.70;99.90
18444;DHT22;9350;53.176;8.194;2023-03-24T09:35:54;12.60;99.90
18444;DHT22;9350;53.176;8.194;2023-03-24T09:38:20;12.80;99.90
18444;DHT22;9350;53.176;8.194;2023-03-24T09:40:48;12.70;99.90
18444;DHT22;9350;53.176;8.194;2023-03-24T09:43:24;12.80;99.90
18444;DHT22;9350;53.176;8.194;2023-03-24T09:45:53;12.90;99.90
18444;DHT22;9350;53.176;8.194;2023-03-24T09:48:27;13.00;99.90
18444;DHT22;9350;53.176;8.194;2023-03-24T09:51:01;13.00;99.90
18444;DHT22;9350;53.176;8.194;2023-03-24T09:53:32;12.90;99.90
18444;DHT22;9350;53.176;8.194;2023-03-24T09:56:10;12.80;99.90
18444;DHT22;9350;53.176;8.194;2023-03-24T09:58:37;12.70;99.90
18444;DHT22;9350;53.176;8.194;2023-03-24T10:01:10;12.70;99.90
18444;DHT22;9350;53.176;8.194;2023-03-24T10:03:38;12.70;99.90
18444;DHT22;9350;53.176;8.194;2023-03-24T10:06:08;12.80;99.90
18444;DHT22;9350;53.176;8.194;2023-03-24T10:08:36;12.90;99.90
18444;DHT22;9350;53.176;8.194;2023-03-24T10:11:10;13.10;99.90
18444;DHT22;9350;53.176;8.194;2023-03-24T10:13:48;13.20;99.90
18444;DHT22;9350;53.176;8.194;2023-03-24T10:16:23;13.30;99.90
18444;DHT22;9350;53.176;8.194;2023-03-24T10:18:57;13.40;99.90
18444;DHT22;9350;53.176;8.194;2023-03-24T10:21:27;13.40;99.90
18444;DHT22;9350;53.176;8.194;2023-03-24T10:24:00;13.40;99.90
18444;DHT22;9350;53.176;8.194;2023-03-24T10:26:35;13.50;99.90
18444;DHT22;9350;53.176;8.194;2023-03-24T10:29:21;13.60;99.90
18444;DHT22;9350;53.176;8.194;2023-03-24T10:31:51;13.60;99.90
18444;DHT22;9350;53.176;8.194;2023-03-24T10:34:18;13.60;99.90
18444;DHT22;9350;53.176;8.194;2023-03-24T10:36:49;13.70;99.90
18444;DHT22;9350;53.176;8.194;2023-03-24T10:39:18;13.90;99.90
18444;DHT22;9350;53.176;8.194;2023-03-24T10:41:45;14.00;99.90
18444;DHT22;9350;53.176;8.194;2023-03-24T10:44:12;14.00;99.90
18444;DHT22;9350;53.176;8.194;2023-03-24T10:46:44;14.00;99.90
18444;DHT22;9350;53.176;8.194;2023-03-24T10:49:15;13.90;99.90
18444;DHT22;9350;53.176;8.194;2023-03-24T10:51:45;13.90;99.90
18444;DHT22;9350;53.176;8.194;2023-03-24T10:54:17;13.80;99.90
18444;DHT22;9350;53.176;8.194;2023-03-24T10:56:45;13.80;99.90
18444;DHT22;9350;53.176;8.194;2023-03-24T10:59:21;13.70;99.90
18444;DHT22;9350;53.176;8.194;2023-03-24T11:01:55;13.50;99.90
18444;DHT22;9350;53.176;8.194;2023-03-24T11:04:23;13.40;99.90
18444;DHT22;9350;53.176;8.194;2023-03-24T11:07:00;13.30;99.90
18444;DHT22;9350;53.176;8.194;2023-03-24T11:09:38;13.20;99.90
18444;DHT22;9350;53.176;8.194;2023-03-24T11:12:19;13.30;99.90
18444;DHT22;9350;53.176;8.194;2023-03-24T11:14:46;13.20;99.90
18444;DHT22;9350;53.176;8.194;2023-03-24T11:17:14;13.30;99.90
18444;DHT22;9350;53.176;8.194;2023-03-24T11:19:50;13.30;99.90
18444;DHT22;9350;53.176;8.194;2023-03-24T11:22:17;13.30;99.90
18444;DHT22;9350;53.176;8.194;2023-03-24T11:24:48;13.20;99.90
18444;DHT22;9350;53.176;8.194;2023-03-24T11:27:15;13.30;99.90
18444;DHT22;9350;53.176;8.194;2023-03-24T11:29:44;13.30;99.90
18444;DHT22;9350;53.176;8.194;2023-03-24T11:32:18;13.40;99.90
18444;DHT22;9350;53.176;8.194;2023-03-24T11:34:49;13.40;99.90
18444;DHT22;9350;53.176;8.194;2023-03-24T11:37:22;13.50;99.90
18444;DHT22;9350;53.176;8.194;2023-03-24T11:40:16;13.60;99.90
18444;DHT22;9350;53.176;8.194;2023-03-24T11:42:44;13.60;99.90
18444;DHT22;9350;53.176;8.194;2023-03-24T11:45:33;13.70;99.90
18444;DHT22;9350;53.176;8.194;2023-03-24T11:48:03;13.70;99.90
18444;DHT22;9350;53.176;8.194;2023-03-24T11:50:38;13.70;99.90
18444;DHT22;9350;53.176;8.194;2023-03-24T11:53:09;13.80;99.90
18444;DHT22;9350;53.176;8.194;2023-03-24T11:55:42;13.90;99.90
18444;DHT22;9350;53.176;8.194;2023-03-24T11:58:17;14.00;99.90
18444;DHT22;9350;53.176;8.194;2023-03-24T12:00:52;14.00;99.90
18444;DHT22;9350;53.176;8.194;2023-03-24T12:06:19;14.10;99.90
18444;DHT22;9350;53.176;8.194;2023-03-24T12:08:58;14.00;99.90
18444;DHT22;9350;53.176;8.194;2023-03-24T12:11:32;14.10;99.90
18444;DHT22;9350;53.176;8.194;2023-03-24T12:14:05;14.20;99.90
18444;DHT22;9350;53.176;8.194;2023-03-24T12:16:40;14.20;99.90
18444;DHT22;9350;53.176;8.194;2023-03-24T12:19:32;14.20;99.90
18444;DHT22;9350;53.176;8.194;2023-03-24T12:22:10;14.20;99.90
18444;DHT22;9350;53.176;8.194;2023-03-24T12:27:36;14.40;99.90
18444;DHT22;9350;53.176;8.194;2023-03-24T12:30:16;14.50;99.90
18444;DHT22;9350;53.176;8.194;2023-03-24T12:32:55;14.50;99.90
18444;DHT22;9350;53.176;8.194;2023-03-24T12:35:32;14.60;99.90
18444;DHT22;9350;53.176;8.194;2023-03-24T12:38:11;14.70;99.90
18444;DHT22;9350;53.176;8.194;2023-03-24T12:40:53;14.70;99.90
18444;DHT22;9350;53.176;8.194;2023-03-24T12:43:33;14.70;99.90
18444;DHT22;9350;53.176;8.194;2023-03-24T12:46:13;14.70;99.90
18444;DHT22;9350;53.176;8.194;2023-03-24T12:48:54;14.70;99.90
18444;DHT22;9350;53.176;8.194;2023-03-24T12:51:31;14.70;99.90
18444;DHT22;9350;53.176;8.194;2023-03-24T12:54:11;14.60;99.90
18444;DHT22;9350;53.176;8.194;2023-03-24T12:56:43;14.70;99.90
18444;DHT22;9350;53.176;8.194;2023-03-24T12:59:15;14.80;99.90
18444;DHT22;9350;53.176;8.194;2023-03-24T13:01:45;14.90;99.90
18444;DHT22;9350;53.176;8.194;2023-03-24T13:04:18;15.00;99.90
18444;DHT22;9350;53.176;8.194;2023-03-24T13:06:49;15.00;99.90
18444;DHT22;9350;53.176;8.194;2023-03-24T13:09:24;15.00;99.90
18444;DHT22;9350;53.176;8.194;2023-03-24T13:11:59;15.10;99.90
18444;DHT22;9350;53.176;8.194;2023-03-24T13:14:31;15.10;99.90
18444;DHT22;9350;53.176;8.194;2023-03-24T13:17:03;15.10;99.90
18444;DHT22;9350;53.176;8.194;2023-03-24T13:19:32;15.20;99.90
18444;DHT22;9350;53.176;8.194;2023-03-24T13:22:00;15.30;99.90
18444;DHT22;9350;53.176;8.194;2023-03-24T13:24:28;15.30;99.90
18444;DHT22;9350;53.176;8.194;2023-03-24T13:27:01;15.30;99.90
18444;DHT22;9350;53.176;8.194;2023-03-24T13:29:46;15.40;99.90
18444;DHT22;9350;53.176;8.194;2023-03-24T13:32:23;15.40;99.90
18444;DHT22;9350;53.176;8.194;2023-03-24T13:34:55;15.50;99.90
18444;DHT22;9350;53.176;8.194;2023-03-24T13:37:27;15.50;99.90
18444;DHT22;9350;53.176;8.194;2023-03-24T13:39:56;15.50;99.90
18444;DHT22;9350;53.176;8.194;2023-03-24T13:42:29;15.50;99.90
18444;DHT22;9350;53.176;8.194;2023-03-24T13:44:59;15.40;99.90
18444;DHT22;9350;53.176;8.194;2023-03-24T13:47:46;15.20;99.90
18444;DHT22;9350;53.176;8.194;2023-03-24T13:50:13;15.10;99.90
18444;DHT22;9350;53.176;8.194;2023-03-24T13:52:44;15.10;99.90
18444;DHT22;9350;53.176;8.194;2023-03-24T13:55:13;15.10;99.90
18444;DHT22;9350;53.176;8.194;2023-03-24T13:57:41;15.10;99.90
18444;DHT22;9350;53.176;8.194;2023-03-24T14:00:20;15.10;99.90
18444;DHT22;9350;53.176;8.194;2023-03-24T14:02:48;15.10;99.90
18444;DHT22;9350;53.176;8.194;2023-03-24T14:05:33;15.10;99.90
18444;DHT22;9350;53.176;8.194;2023-03-24T14:08:15;15.00;99.90
18444;DHT22;9350;53.176;8.194;2023-03-24T14:10:47;15.10;99.90
18444;DHT22;9350;53.176;8.194;2023-03-24T14:16:33;15.00;99.90
18444;DHT22;9350;53.176;8.194;2023-03-24T14:19:08;14.90;99.90
18444;DHT22;9350;53.176;8.194;2023-03-24T14:21:43;14.80;99.90
18444;DHT22;9350;53.176;8.194;2023-03-24T14:24:15;14.70;99.90
18444;DHT22;9350;53.176;8.194;2023-03-24T14:26:42;14.70;99.90
18444;DHT22;9350;53.176;8.194;2023-03-24T14:29:35;14.80;99.90
18444;DHT22;9350;53.176;8.194;2023-03-24T14:32:04;14.80;99.90
18444;DHT22;9350;53.176;8.194;2023-03-24T14:34:31;14.70;99.90
18444;DHT22;9350;53.176;8.194;2023-03-24T14:37:02;14.70;99.90
18444;DHT22;9350;53.176;8.194;2023-03-24T14:39:38;14.70;99.90
18444;DHT22;9350;53.176;8.194;2023-03-24T14:45:38;14.70;99.90
18444;DHT22;9350;53.176;8.194;2023-03-24T14:48:22;14.70;99.90
18444;DHT22;9350;53.176;8.194;2023-03-24T14:50:52;14.70;99.90
18444;DHT22;9350;53.176;8.194;2023-03-24T14:53:20;14.70;99.90
18444;DHT22;9350;53.176;8.194;2023-03-24T14:55:47;14.70;99.90
18444;DHT22;9350;53.176;8.194;2023-03-24T14:58:20;14.80;99.90
18444;DHT22;9350;53.176;8.194;2023-03-24T15:00:51;14.70;99.90
18444;DHT22;9350;53.176;8.194;2023-03-24T15:03:29;14.70;99.90
18444;DHT22;9350;53.176;8.194;2023-03-24T15:06:07;14.60;99.90
18444;DHT22;9350;53.176;8.194;2023-03-24T15:08:37;14.50;99.90
18444;DHT22;9350;53.176;8.194;2023-03-24T15:11:05;14.40;99.90
18444;DHT22;9350;53.176;8.194;2023-03-24T15:13:34;14.40;99.90
18444;DHT22;9350;53.176;8.194;2023-03-24T15:16:05;14.40;99.90
18444;DHT22;9350;53.176;8.194;2023-03-24T15:18:34;14.40;99.90
18444;DHT22;9350;53.176;8.194;2023-03-24T15:21:00;14.30;99.90
18444;DHT22;9350;53.176;8.194;2023-03-24T15:23:38;14.30;99.90
18444;DHT22;9350;53.176;8.194;2023-03-24T15:26:11;14.20;99.90
18444;DHT22;9350;53.176;8.194;2023-03-24T15:28:38;14.20;99.90
18444;DHT22;9350;53.176;8.194;2023-03-24T15:31:05;14.10;99.90
18444;DHT22;9350;53.176;8.194;2023-03-24T15:33:38;14.10;99.90
18444;DHT22;9350;53.176;8.194;2023-03-24T15:36:13;14.10;99.90
18444;DHT22;9350;53.176;8.194;2023-03-24T15:38:44;14.10;99.90
18444;DHT22;9350;53.176;8.194;2023-03-24T15:41:13;14.00;99.90
18444;DHT22;9350;53.176;8.194;2023-03-24T15:43:43;14.00;99.90
18444;DHT22;9350;53.176;8.194;2023-03-24T15:46:21;13.90;99.90
18444;DHT22;9350;53.176;8.194;2023-03-24T15:48:50;13.80;99.90
18444;DHT22;9350;53.176;8.194;2023-03-24T15:51:18;13.80;99.90
18444;DHT22;9350;53.176;8.194;2023-03-24T15:53:46;13.80;99.90
18444;DHT22;9350;53.176;8.194;2023-03-24T15:56:18;13.80;99.90
18444;DHT22;9350;53.176;8.194;2023-03-24T15:58:49;13.80;99.90
18444;DHT22;9350;53.176;8.194;2023-03-24T16:01:18;13.80;99.90
18444;DHT22;9350;53.176;8.194;2023-03-24T16:03:46;13.70;99.90
18444;DHT22;9350;53.176;8.194;2023-03-24T16:06:22;13.70;99.90
18444;DHT22;9350;53.176;8.194;2023-03-24T16:08:52;13.70;99.90
18444;DHT22;9350;53.176;8.194;2023-03-24T16:11:20;13.80;99.90
18444;DHT22;9350;53.176;8.194;2023-03-24T16:13:47;13.70;99.90
18444;DHT22;9350;53.176;8.194;2023-03-24T16:16:22;13.70;99.90
18444;DHT22;9350;53.176;8.194;2023-03-24T16:18:50;13.60;99.90
18444;DHT22;9350;53.176;8.194;2023-03-24T16:21:19;13.60;99.90
18444;DHT22;9350;53.176;8.194;2023-03-24T16:23:47;13.50;99.90
18444;DHT22;9350;53.176;8.194;2023-03-24T16:26:16;13.50;99.90
18444;DHT22;9350;53.176;8.194;2023-03-24T16:28:43;13.50;99.90